Time;durP1;ratioP1;P1;durP2;ratioP2;P2;SDS_P1;SDS_P2;PMS_P1;PMS_P2;Temp;Humidity;BMP_temperature;BMP_pressure;BME280_temperature;BME280_humidity;BME280_pressure;Samples;Min_cycle;Max_cycle;Signal;HPM_P1;HPM_P2
2022/06/11 00:12:24;;;;;;;;;;;;;;;;;;;;;
2022/06/11 00:28:14;;;;;;;;;;;;;;;;;;;;;
2022/06/11 00:31:10;;;;;;;6.47;5.22;;;;;;;;;;5326749;27;40193;-89
2022/06/11 00:33:52;;;;;;;6.95;5.07;;;;;;;;;;5242995;28;20136;-90
2022/06/11 00:37:03;;;;;;;;;;;;;;;;;;;;;
2022/06/11 00:39:53;;;;;;;6.85;4.88;;;;;;;;;;5332718;27;41156;-90
2022/06/11 00:43:09;;;;;;;6.95;5.20;;;;;;;;;;5297528;28;20018;-90
2022/06/11 00:45:53;;;;;;;8.00;5.40;;;;;;;;;;5221721;28;20137;-90
2022/06/11 00:51:55;;;;;;;;;;;;;;;;;;;;;
2022/06/11 00:58:25;;;;;;;;;;;;;;;;;;;;;
2022/06/11 01:05:06;;;;;;;;;;;;;;;;;;;;;
2022/06/11 01:08:09;;;;;;;10.75;6.85;;;;;;;;;;5215315;28;40186;-90
2022/06/11 01:11:25;;;;;;;9.20;6.47;;;;;;;;;;5104297;28;20191;-90
2022/06/11 01:14:39;;;;;;;8.23;6.47;;;;;;;;;;5184828;28;20359;-90
2022/06/11 01:27:49;;;;;;;;;;;;;;;;;;;;;
2022/06/11 01:40:17;;;;;;;;;;;;;;;;;;;;;
2022/06/11 01:47:02;;;;;;;11.77;7.95;;;;;;;;;;5308919;27;20064;-90
2022/06/11 01:49:40;;;;;;;;;;;;;;;;;;;;;
2022/06/11 01:52:26;;;;;;;11.68;7.20;;;;;;;;;;5275531;28;42592;-90
2022/06/11 01:55:45;;;;;;;;;;;;;;;;;;;;;
2022/06/11 02:02:21;;;;;;;11.70;6.97;;;;;;;;;;5202825;28;20042;-90
2022/06/11 02:05:06;;;;;;;10.68;7.88;;;;;;;;;;5196117;28;20074;-90
2022/06/11 02:11:18;;;;;;;8.23;7.28;;;;;;;;;;5221552;28;20042;-90
2022/06/11 02:17:27;;;;;;;8.38;6.80;;;;;;;;;;5315111;27;20020;-90
2022/06/11 02:23:41;;;;;;;;;;;;;;;;;;;;;
2022/06/11 02:29:42;;;;;;;9.02;7.28;;;;;;;;;;5287602;27;20119;-90
2022/06/11 02:32:36;;;;;;;8.93;7.53;;;;;;;;;;5300607;28;20045;-90
2022/06/11 02:38:38;;;;;;;9.95;6.05;;;;;;;;;;5329187;27;20083;-90
2022/06/11 02:44:45;;;;;;;;;;;;;;;;;;;;;
2022/06/11 02:47:42;;;;;;;6.18;5.45;;;;;;;;;;5333557;27;39788;-90
2022/06/11 02:50:46;;;;;;;;;;;;;;;;;;;;;
2022/06/11 02:53:44;;;;;;;7.07;5.65;;;;;;;;;;5330552;27;40704;-90
2022/06/11 02:56:30;;;;;;;;;;;;;;;;;;5313763;27;20170;-89
2022/06/11 03:02:24;;;;;;;6.43;5.82;;;;;;;;;;5309464;27;20103;-90
2022/06/11 03:09:07;;;;;;;10.20;6.38;;;;;;;;;;5214710;28;20523;-89
2022/06/11 03:15:32;;;;;;;5.72;4.82;;;;;;;;;;5178369;28;20142;-90
2022/06/11 03:31:09;;;;;;;8.65;5.45;;;;;;;;;;5271402;28;20037;-90
2022/06/11 03:37:27;;;;;;;5.47;4.97;;;;;;;;;;5316603;27;20029;-90
2022/06/11 03:40:37;;;;;;;;;;;;;;;;;;;;;
2022/06/11 03:43:27;;;;;;;6.85;4.80;;;;;;;;;;5310891;27;41239;-90
2022/06/11 03:46:24;;;;;;;6.95;5.38;;;;;;;;;;5284729;28;20574;-90
2022/06/11 03:58:59;;;;;;;4.97;4.13;;;;;;;;;;5252515;28;20142;-90
2022/06/11 04:02:01;;;;;;;7.03;4.30;;;;;;;;;;5280978;28;20260;-89
2022/06/11 04:05:05;;;;;;;6.13;4.07;;;;;;;;;;5288335;28;20099;-90
2022/06/11 04:08:25;;;;;;;5.30;3.65;;;;;;;;;;5305850;28;20055;-90
2022/06/11 04:11:20;;;;;;;7.65;3.75;;;;;;;;;;5286995;28;20670;-89
2022/06/11 04:14:29;;;;;;;6.38;4.65;;;;;;;;;;5284539;28;20103;-90
2022/06/11 04:20:39;;;;;;;6.43;3.70;;;;;;;;;;5302607;27;20068;-90
2022/06/11 04:23:30;;;;;;;;;;;;;;;;;;;;;
2022/06/11 04:26:33;;;;;;;;;;;;;;;;;;;;;
2022/06/11 04:32:30;;;;;;;6.03;3.03;;;;;;;;;;5311572;28;20122;-90
2022/06/11 04:39:05;;;;;;;4.97;3.67;;;;;;;;;;5237563;28;20064;-89
2022/06/11 04:42:00;;;;;;;;;;;;;;;;;;;;;
2022/06/11 04:45:05;;;;;;;7.25;4.38;;;;;;;;;;5226970;28;42766;-89
2022/06/11 04:47:53;;;;;;;5.45;3.40;;;;;;;;;;5231217;28;20115;-90
2022/06/11 04:50:52;;;;;;;7.72;3.50;;;;;;;;;;5229355;28;20046;-89
2022/06/11 04:53:48;;;;;;;5.57;3.65;;;;;;;;;;5245899;28;20564;-90
2022/06/11 05:02:56;;;;;;;7.97;3.33;;;;;;;;;;5230613;28;20080;-89
2022/06/11 05:05:33;;;;;;;11.02;3.80;;;;;;;;;;5225097;28;20070;-90
2022/06/11 05:08:42;;;;;;;5.82;2.95;;;;;;;;;;5223743;28;20095;-90
2022/06/11 05:14:51;;;;;;;8.95;3.78;;;;;;;;;;5288785;27;20032;-89
2022/06/11 05:17:58;;;;;;;6.78;2.90;;;;;;;;;;5299027;28;20467;-89
2022/06/11 05:21:11;;;;;;;10.85;3.50;;;;;;;;;;5318367;27;20031;-90
2022/06/11 05:24:29;;;;;;;11.48;4.22;;;;;;;;;;5305410;27;20491;-89
2022/06/11 05:27:49;;;;;;;9.10;3.67;;;;;;;;;;5296095;27;20047;-90
2022/06/11 05:34:57;;;;;;;;;;;;;;;;;;;;;
2022/06/11 05:37:46;;;;;;;9.80;3.60;;;;;;;;;;5255473;28;40721;-89
2022/06/11 05:40:53;;;;;;;9.13;2.58;;;;;;;;;;5232673;28;20046;-90
2022/06/11 05:43:54;;;;;;;;;;;;;;;;;;;;;
2022/06/11 05:53:48;;;;;;;9.70;3.67;;;;;;;;;;5244280;28;20034;-89
2022/06/11 05:56:45;;;;;;;9.25;3.00;;;;;;;;;;5227498;28;20108;-89
2022/06/11 05:59:37;;;;;;;13.23;3.95;;;;;;;;;;5245797;28;20026;-89
2022/06/11 06:02:42;;;;;;;;;;;;;;;;;;;;;
2022/06/11 06:09:02;;;;;;;11.27;3.17;;;;;;;;;;5277672;28;20068;-89
2022/06/11 06:11:45;;;;;;;10.07;2.92;;;;;;;;;;5250403;28;20474;-89
2022/06/11 06:14:27;;;;;;;;;;;;;;;;;;;;;
2022/06/11 06:20:26;;;;;;;12.68;3.17;;;;;;;;;;5245757;28;20029;-90
2022/06/11 06:23:22;;;;;;;10.23;2.80;;;;;;;;;;5299785;28;20067;-90
2022/06/11 06:26:24;;;;;;;14.43;3.63;;;;;;;;;;5310421;28;20036;-90
2022/06/11 06:29:28;;;;;;;8.63;3.00;;;;;;;;;;5282884;28;20530;-90
2022/06/11 06:32:38;;;;;;;13.23;3.40;;;;;;;;;;5328745;27;20040;-90
2022/06/11 06:35:25;;;;;;;10.40;3.22;;;;;;;;;;5296192;28;20389;-90
2022/06/11 06:41:07;;;;;;;13.82;3.80;;;;;;;;;;5311612;27;20056;-90
2022/06/11 06:44:10;;;;;;;13.23;3.28;;;;;;;;;;5319310;27;20150;-90
2022/06/11 06:47:12;;;;;;;16.13;3.45;;;;;;;;;;5322730;27;20036;-90
2022/06/11 06:53:44;;;;;;;16.23;3.65;;;;;;;;;;5247202;28;20046;-90
2022/06/11 06:56:29;;;;;;;14.93;3.50;;;;;;;;;;5262092;28;20127;-89
2022/06/11 06:59:32;;;;;;;9.20;3.22;;;;;;;;;;5250441;28;20037;-89
2022/06/11 07:02:14;;;;;;;;;;;;;;;;;;;;;
2022/06/11 07:05:00;;;;;;;15.43;3.70;;;;;;;;;;5253686;28;39861;-90
2022/06/11 07:08:00;;;;;;;11.48;3.08;;;;;;;;;;5276215;28;20497;-90
2022/06/11 07:10:51;;;;;;;16.33;3.83;;;;;;;;;;5256717;28;20041;-90
2022/06/11 07:13:35;;;;;;;;;;;;;;;;;;;;;
2022/06/11 07:16:41;;;;;;;11.07;3.03;;;;;;;;;;5249714;28;40225;-90
2022/06/11 07:25:59;;;;;;;17.05;4.43;;;;;;;;;;5256638;28;20082;-90
2022/06/11 07:28:46;;;;;;;12.70;3.72;;;;;;;;;;5244137;28;20141;-90
2022/06/11 07:31:20;;;;;;;12.25;3.70;;;;;;;;;;5235089;28;20034;-90
2022/06/11 07:34:04;;;;;;;;;;;;;;;;;;;;;
2022/06/11 07:39:53;;;;;;;16.27;4.10;;;;;;;;;;5295562;28;20508;-90
2022/06/11 07:42:47;;;;;;;;;;;;;;;;;;;;;
2022/06/11 07:45:35;;;;;;;16.98;4.10;;;;;;;;;;5300920;28;42264;-90
2022/06/11 07:54:29;;;;;;;13.77;3.50;;;;;;;;;;5309491;28;20099;-89
2022/06/11 07:57:10;;;;;;;13.95;3.45;;;;;;;;;;5320309;28;20029;-90
2022/06/11 08:00:07;;;;;;;14.18;3.63;;;;;;;;;;5283415;28;20076;-91
2022/06/11 08:05:56;;;;;;;14.02;3.80;;;;;;;;;;5266323;28;20196;-90
2022/06/11 08:08:50;;;;;;;19.02;4.13;;;;;;;;;;5317109;28;20207;-90
2022/06/11 08:11:35;;;;;;;14.82;4.20;;;;;;;;;;5294834;28;20120;-89
2022/06/11 08:18:00;;;;;;;13.70;4.20;;;;;;;;;;5308408;28;20033;-90
2022/06/11 08:20:38;;;;;;;17.52;4.70;;;;;;;;;;5309547;28;20549;-90
2022/06/11 08:23:24;;;;;;;16.73;4.32;;;;;;;;;;5300547;28;20033;-90
2022/06/11 08:26:00;;;;;;;14.65;3.65;;;;;;;;;;5289687;28;20028;-90
2022/06/11 08:28:37;;;;;;;16.15;4.43;;;;;;;;;;5287162;28;20033;-90
2022/06/11 08:31:14;;;;;;;15.27;4.38;;;;;;;;;;5288743;27;20048;-90
2022/06/11 08:34:05;;;;;;;14.80;4.22;;;;;;;;;;5331440;27;20052;-90
2022/06/11 08:36:59;;;;;;;18.30;4.22;;;;;;;;;;5304129;28;20762;-91
2022/06/11 08:39:30;;;;;;;15.73;4.72;;;;;;;;;;5326551;28;20035;-90
2022/06/11 08:42:32;;;;;;;15.98;4.30;;;;;;;;;;5308902;28;20016;-90
2022/06/11 08:45:11;;;;;;;15.52;3.97;;;;;;;;;;5304518;28;20067;-90
2022/06/11 08:47:53;;;;;;;13.23;3.70;;;;;;;;;;5286349;28;20488;-90
2022/06/11 08:50:46;;;;;;;12.95;3.60;;;;;;;;;;5295002;27;20036;-90
2022/06/11 08:53:23;;;;;;;13.43;4.00;;;;;;;;;;5306013;28;20024;-90
2022/06/11 08:59:28;;;;;;;17.80;5.03;;;;;;;;;;5326959;28;20491;-90
2022/06/11 09:02:17;;;;;;;20.60;4.07;;;;;;;;;;5259993;28;20115;-89
2022/06/11 09:05:15;;;;;;;18.27;4.45;;;;;;;;;;5262142;28;20036;-89
2022/06/11 09:07:50;;;;;;;18.10;4.88;;;;;;;;;;5341609;27;20036;-89
2022/06/11 09:10:46;;;;;;;;;;;;;;;;;;;;;
2022/06/11 09:16:56;;;;;;;20.85;4.32;;;;;;;;;;5329260;27;20035;-90
2022/06/11 09:19:47;;;;;;;18.92;4.43;;;;;;;;;;5318740;27;20032;-88
2022/06/11 09:22:40;;;;;;;14.23;3.95;;;;;;;;;;5334712;27;20400;-89
2022/06/11 09:25:21;;;;;;;21.13;4.82;;;;;;;;;;5319205;27;20218;-89
2022/06/11 09:28:25;;;;;;;19.88;4.40;;;;;;;;;;5309417;27;20039;-89
2022/06/11 09:31:18;;;;;;;18.58;4.50;;;;;;;;;;5313254;27;20051;-89
2022/06/11 09:34:11;;;;;;;15.75;4.20;;;;;;;;;;5328713;27;20119;-90
2022/06/11 09:37:04;;;;;;;;;;;;;;;;;;;;;
2022/06/11 09:39:43;;;;;;;13.50;4.43;;;;;;;;;;5353931;27;40200;-90
2022/06/11 09:42:53;;;;;;;18.00;4.68;;;;;;;;;;5317120;27;20107;-90
2022/06/11 09:45:46;;;;;;;15.70;4.40;;;;;;;;;;5304592;28;20037;-90
2022/06/11 09:48:47;;;;;;;13.10;4.03;;;;;;;;;;5316562;27;20093;-90
2022/06/11 09:51:58;;;;;;;15.20;3.42;;;;;;;;;;5342208;27;20120;-90
2022/06/11 09:54:39;;;;;;;12.20;3.17;;;;;;;;;;5308424;28;20056;-89
2022/06/11 09:57:30;;;;;;;11.75;2.92;;;;;;;;;;5302707;28;20035;-89
2022/06/11 10:00:24;;;;;;;12.25;3.35;;;;;;;;;;5348340;27;20040;-87
2022/06/11 10:03:30;;;;;;;9.07;3.10;;;;;;;;;;5333969;27;30921;-88
2022/06/11 10:06:05;;;;;;;12.83;3.50;;;;;;;;;;5348821;27;20020;-87
2022/06/11 10:08:51;;;;;;;14.20;3.78;;;;;;;;;;5331226;27;20103;-87
2022/06/11 10:11:50;;;;;;;14.43;3.85;;;;;;;;;;5330922;27;20043;-87
2022/06/11 10:14:40;;;;;;;15.07;3.72;;;;;;;;;;5346958;27;20047;-87
2022/06/11 10:17:16;;;;;;;15.77;4.03;;;;;;;;;;5330041;27;20036;-87
2022/06/11 10:20:10;;;;;;;11.43;3.42;;;;;;;;;;5302999;27;20119;-87
2022/06/11 10:22:49;;;;;;;11.40;3.22;;;;;;;;;;5306492;28;20111;-87
2022/06/11 10:25:23;;;;;;;10.18;3.33;;;;;;;;;;5314425;28;20032;-87
2022/06/11 10:28:07;;;;;;;11.93;3.33;;;;;;;;;;5308266;28;20533;-87
2022/06/11 10:30:42;;;;;;;11.10;3.33;;;;;;;;;;5324865;28;20042;-87
2022/06/11 10:33:22;;;;;;;11.60;3.17;;;;;;;;;;5310206;28;20122;-87
2022/06/11 10:36:00;;;;;;;12.57;3.70;;;;;;;;;;5328445;27;20024;-87
2022/06/11 10:38:37;;;;;;;10.93;3.22;;;;;;;;;;5287907;28;20089;-87
2022/06/11 10:41:23;;;;;;;14.45;4.13;;;;;;;;;;5327278;27;20487;-87
2022/06/11 10:44:03;;;;;;;11.00;3.42;;;;;;;;;;5299725;28;20093;-87
2022/06/11 10:46:37;;;;;;;10.38;3.15;;;;;;;;;;5307245;27;20017;-87
2022/06/11 10:49:15;;;;;;;16.98;4.65;;;;;;;;;;5304172;27;20044;-86
2022/06/11 10:52:00;;;;;;;14.25;4.78;;;;;;;;;;5294363;28;20153;-87
2022/06/11 10:54:31;;;;;;;14.63;3.63;;;;;;;;;;5293989;28;20142;-86
2022/06/11 10:57:19;;;;;;;12.75;3.72;;;;;;;;;;5310109;27;20028;-87
2022/06/11 11:00:14;;;;;;;12.05;3.20;;;;;;;;;;5312532;27;20035;-86
2022/06/11 11:02:51;;;;;;;16.23;4.32;;;;;;;;;;5315343;27;20035;-86
2022/06/11 11:05:28;;;;;;;13.93;4.53;;;;;;;;;;5305444;28;20024;-87
2022/06/11 11:08:02;;;;;;;12.63;3.90;;;;;;;;;;5301928;28;20400;-86
2022/06/11 11:10:34;;;;;;;11.57;4.05;;;;;;;;;;5307710;28;20028;-86
2022/06/11 11:13:12;;;;;;;10.68;3.67;;;;;;;;;;5307504;28;20031;-87
2022/06/11 11:16:09;;;;;;;12.32;4.03;;;;;;;;;;5327637;27;20024;-86
2022/06/11 11:19:01;;;;;;;15.18;3.83;;;;;;;;;;5303607;27;20032;-86
2022/06/11 11:21:37;;;;;;;12.43;3.95;;;;;;;;;;5305861;27;20033;-85
2022/06/11 11:24:19;;;;;;;11.70;4.03;;;;;;;;;;5323301;27;20384;-86
2022/06/11 11:26:56;;;;;;;12.98;4.35;;;;;;;;;;5314656;27;20039;-85
2022/06/11 11:29:30;;;;;;;15.68;4.15;;;;;;;;;;5320127;28;20140;-86
2022/06/11 11:32:15;;;;;;;15.50;4.38;;;;;;;;;;5308058;27;20036;-86
2022/06/11 11:34:49;;;;;;;14.98;4.13;;;;;;;;;;5308540;28;20046;-85
2022/06/11 11:37:22;;;;;;;10.90;4.22;;;;;;;;;;5306973;27;20027;-86
2022/06/11 11:39:59;;;;;;;11.60;4.10;;;;;;;;;;5329280;27;20103;-83
2022/06/11 11:42:39;;;;;;;11.85;3.92;;;;;;;;;;5305750;27;20045;-81
2022/06/11 11:45:21;;;;;;;10.60;3.90;;;;;;;;;;5311962;27;20028;-80
2022/06/11 11:48:03;;;;;;;16.30;3.72;;;;;;;;;;5309851;27;20119;-81
2022/06/11 11:50:36;;;;;;;10.18;3.35;;;;;;;;;;5330934;27;20020;-82
2022/06/11 11:53:18;;;;;;;12.18;3.38;;;;;;;;;;5313677;28;20484;-81
2022/06/11 11:55:55;;;;;;;12.80;3.45;;;;;;;;;;5332727;27;20451;-81
2022/06/11 11:58:33;;;;;;;11.13;3.22;;;;;;;;;;5314604;27;20339;-81
2022/06/11 12:01:06;;;;;;;12.18;3.40;;;;;;;;;;5310373;27;20024;-81
2022/06/11 12:03:42;;;;;;;16.55;3.65;;;;;;;;;;5330560;27;20024;-81
2022/06/11 12:06:25;;;;;;;13.25;3.65;;;;;;;;;;5312463;27;20036;-81
2022/06/11 12:08:58;;;;;;;15.48;4.38;;;;;;;;;;5307240;28;20090;-81
2022/06/11 12:11:32;;;;;;;11.35;3.30;;;;;;;;;;5321706;27;20373;-81
2022/06/11 12:14:15;;;;;;;10.95;3.33;;;;;;;;;;5302097;28;20042;-81
2022/06/11 12:16:54;;;;;;;15.35;4.05;;;;;;;;;;5307636;28;20101;-81
2022/06/11 12:19:28;;;;;;;10.48;3.53;;;;;;;;;;5320518;28;20484;-81
2022/06/11 12:22:02;;;;;;;11.07;3.40;;;;;;;;;;5321153;28;20037;-81
2022/06/11 12:24:34;;;;;;;12.88;3.80;;;;;;;;;;5319716;27;20491;-81
2022/06/11 12:27:11;;;;;;;14.68;4.10;;;;;;;;;;5333375;27;20485;-81
2022/06/11 12:29:49;;;;;;;12.70;3.80;;;;;;;;;;5319611;27;20036;-81
2022/06/11 12:32:22;;;;;;;11.05;3.38;;;;;;;;;;5295114;28;20516;-81
2022/06/11 12:34:54;;;;;;;13.93;3.65;;;;;;;;;;5290890;28;20113;-80
2022/06/11 12:37:25;;;;;;;13.07;3.58;;;;;;;;;;5298572;28;20043;-80
2022/06/11 12:40:17;;;;;;;11.57;2.88;;;;;;;;;;5299623;28;20036;-81
2022/06/11 12:42:56;;;;;;;13.07;3.42;;;;;;;;;;5294323;28;20499;-81
2022/06/11 12:45:34;;;;;;;11.43;3.10;;;;;;;;;;5285839;28;20116;-81
2022/06/11 12:48:21;;;;;;;9.68;3.22;;;;;;;;;;5290144;28;20874;-81
2022/06/11 12:50:53;;;;;;;10.55;3.40;;;;;;;;;;5285242;28;20487;-81
2022/06/11 12:53:24;;;;;;;16.38;4.55;;;;;;;;;;5304848;27;20035;-81
2022/06/11 12:55:58;;;;;;;15.30;3.70;;;;;;;;;;5292389;28;20020;-80
2022/06/11 12:58:46;;;;;;;12.88;3.47;;;;;;;;;;5306257;28;20096;-81
2022/06/11 13:01:18;;;;;;;9.77;2.85;;;;;;;;;;5303898;28;20120;-81
2022/06/11 13:03:59;;;;;;;10.23;3.05;;;;;;;;;;5314216;28;20032;-81
2022/06/11 13:06:39;;;;;;;11.50;3.63;;;;;;;;;;5318458;28;20024;-81
2022/06/11 13:09:31;;;;;;;11.57;3.35;;;;;;;;;;5307303;28;20036;-81
2022/06/11 13:12:21;;;;;;;12.68;3.30;;;;;;;;;;5275041;28;20036;-80
2022/06/11 13:15:17;;;;;;;14.52;4.20;;;;;;;;;;5298677;28;20089;-80
2022/06/11 13:17:49;;;;;;;9.20;2.97;;;;;;;;;;5318062;28;20171;-80
2022/06/11 13:20:32;;;;;;;10.45;2.85;;;;;;;;;;5309065;28;20067;-81
2022/06/11 13:23:19;;;;;;;9.38;3.17;;;;;;;;;;5301368;28;20065;-81
2022/06/11 13:26:06;;;;;;;11.70;2.65;;;;;;;;;;5298173;28;20025;-81
2022/06/11 13:28:55;;;;;;;13.20;3.97;;;;;;;;;;5284825;28;20040;-81
2022/06/11 13:31:30;;;;;;;13.60;3.10;;;;;;;;;;5292980;28;20021;-81
2022/06/11 13:34:17;;;;;;;14.20;3.40;;;;;;;;;;5320001;27;20055;-82
2022/06/11 13:37:06;;;;;;;9.02;2.78;;;;;;;;;;5313254;27;20500;-81
2022/06/11 13:39:38;;;;;;;11.63;3.28;;;;;;;;;;5313231;27;20040;-82
2022/06/11 13:42:12;;;;;;;10.57;2.97;;;;;;;;;;5313891;27;20023;-81
2022/06/11 13:44:43;;;;;;;13.15;3.15;;;;;;;;;;5304798;27;20703;-81
2022/06/11 13:47:32;;;;;;;11.52;2.80;;;;;;;;;;5322351;27;20032;-82
2022/06/11 13:50:13;;;;;;;11.20;3.33;;;;;;;;;;5323135;27;20031;-81
2022/06/11 13:55:40;;;;;;;11.55;3.33;;;;;;;;;;5315768;27;20111;-81
2022/06/11 13:58:20;;;;;;;14.43;3.05;;;;;;;;;;5311630;27;20039;-82
2022/06/11 14:01:09;;;;;;;10.25;2.90;;;;;;;;;;5315746;27;20112;-81
2022/06/11 14:03:44;;;;;;;11.52;3.33;;;;;;;;;;5323453;27;20029;-82
2022/06/11 14:06:15;;;;;;;9.70;3.05;;;;;;;;;;5317377;27;20032;-82
2022/06/11 14:09:03;;;;;;;12.38;3.70;;;;;;;;;;5320043;27;20036;-81
2022/06/11 14:11:34;;;;;;;10.18;2.90;;;;;;;;;;5324296;27;20408;-81
2022/06/11 14:14:25;;;;;;;12.93;3.72;;;;;;;;;;5314097;27;20040;-81
2022/06/11 14:16:56;;;;;;;13.48;3.30;;;;;;;;;;5310056;27;20543;-82
2022/06/11 14:19:27;;;;;;;19.50;4.40;;;;;;;;;;5321852;27;20040;-81
2022/06/11 14:21:59;;;;;;;11.23;3.08;;;;;;;;;;5318431;27;20029;-81
2022/06/11 14:24:42;;;;;;;11.20;3.37;;;;;;;;;;5318314;27;20040;-80
2022/06/11 14:27:26;;;;;;;12.20;3.40;;;;;;;;;;5313323;27;20400;-81
2022/06/11 14:30:04;;;;;;;11.95;3.65;;;;;;;;;;5303367;27;20032;-81
2022/06/11 14:32:38;;;;;;;14.10;3.95;;;;;;;;;;5321756;27;20040;-81
2022/06/11 14:35:14;;;;;;;10.55;3.13;;;;;;;;;;5321200;27;20037;-81
2022/06/11 14:37:46;;;;;;;12.32;3.15;;;;;;;;;;5315450;27;20027;-81
2022/06/11 14:40:20;;;;;;;7.63;3.03;;;;;;;;;;5322809;27;20081;-81
2022/06/11 14:43:00;;;;;;;18.08;3.33;;;;;;;;;;5318422;27;20035;-82
2022/06/11 14:45:41;;;;;;;11.75;2.65;;;;;;;;;;5312609;27;20040;-82
2022/06/11 14:48:31;;;;;;;9.55;2.60;;;;;;;;;;5314233;27;20037;-81
2022/06/11 14:51:05;;;;;;;20.20;3.13;;;;;;;;;;5293819;27;20616;-81
2022/06/11 14:53:41;;;;;;;8.77;3.05;;;;;;;;;;5323858;27;20028;-81
2022/06/11 14:56:27;;;;;;;11.77;3.22;;;;;;;;;;5311840;27;20037;-82
2022/06/11 14:58:58;;;;;;;;;;;;;;;;;;5311504;27;20463;-81
2022/06/11 15:01:29;;;;;;;11.48;3.17;;;;;;;;;;5333531;27;19919;-81
2022/06/11 15:04:11;;;;;;;14.27;3.40;;;;;;;;;;5320898;27;20059;-81
2022/06/11 15:06:48;;;;;;;10.77;5.45;;;;;;;;;;5320350;27;20031;-81
2022/06/11 15:09:39;;;;;;;17.73;5.78;;;;;;;;;;5318123;27;21497;-81
2022/06/11 15:12:20;;;;;;;9.80;3.30;;;;;;;;;;5322508;27;20388;-81
2022/06/11 15:14:57;;;;;;;8.55;2.53;;;;;;;;;;5320775;27;20036;-81
2022/06/11 15:18:08;;;;;;;6.75;2.63;;;;;;;;;;5322928;27;20114;-81
2022/06/11 15:20:44;;;;;;;12.82;2.53;;;;;;;;;;5236520;28;20522;-81
2022/06/11 15:23:15;;;;;;;;;;;;;;;;;;5236812;28;20104;-81
2022/06/11 15:25:49;;;;;;;11.50;2.35;;;;;;;;;;5284930;27;19916;-81
2022/06/11 15:28:20;;;;;;;11.30;2.40;;;;;;;;;;5313735;27;20042;-81
2022/06/11 15:30:51;;;;;;;10.35;2.70;;;;;;;;;;5319069;27;20032;-81
2022/06/11 15:33:25;;;;;;;8.52;2.60;;;;;;;;;;5316319;27;20141;-81
2022/06/11 15:35:59;;;;;;;7.78;2.60;;;;;;;;;;5293379;27;20101;-81
2022/06/11 15:38:35;;;;;;;8.63;2.80;;;;;;;;;;5320881;27;20063;-81
2022/06/11 15:41:14;;;;;;;11.30;2.75;;;;;;;;;;5319256;27;20043;-80
2022/06/11 15:43:56;;;;;;;11.95;2.97;;;;;;;;;;5313443;27;20033;-81
2022/06/11 15:46:27;;;;;;;10.23;2.95;;;;;;;;;;5293539;27;20020;-81
2022/06/11 15:49:00;;;;;;;8.90;2.77;;;;;;;;;;5314197;27;20441;-80
2022/06/11 15:51:32;;;;;;;8.68;3.20;;;;;;;;;;5310080;27;20027;-81
2022/06/11 15:56:57;;;;;;;11.55;2.90;;;;;;;;;;5314636;27;20040;-79
2022/06/11 15:59:28;;;;;;;10.00;2.75;;;;;;;;;;5303391;27;20082;-80
2022/06/11 16:02:10;;;;;;;7.45;2.17;;;;;;;;;;5325625;28;20495;-79
2022/06/11 16:04:44;;;;;;;8.93;2.90;;;;;;;;;;5324356;28;20450;-80
2022/06/11 16:07:23;;;;;;;10.48;2.90;;;;;;;;;;5325344;28;20028;-79
2022/06/11 16:09:55;;;;;;;8.07;2.35;;;;;;;;;;5319712;28;20043;-80
2022/06/11 16:12:34;;;;;;;10.27;2.80;;;;;;;;;;5320142;28;20074;-79
2022/06/11 16:15:06;;;;;;;8.95;2.85;;;;;;;;;;5320347;28;20036;-80
2022/06/11 16:17:40;;;;;;;9.35;2.50;;;;;;;;;;5325841;28;20078;-80
2022/06/11 16:20:22;;;;;;;10.82;2.63;;;;;;;;;;5324489;27;20044;-80
2022/06/11 16:22:56;;;;;;;10.48;3.33;;;;;;;;;;5324537;28;20451;-79
2022/06/11 16:25:38;;;;;;;10.30;3.25;;;;;;;;;;5325761;28;20024;-79
2022/06/11 16:28:23;;;;;;;9.25;2.67;;;;;;;;;;5325115;28;20040;-80
2022/06/11 16:30:55;;;;;;;8.90;2.45;;;;;;;;;;5340355;27;20024;-79
2022/06/11 16:33:30;;;;;;;10.88;2.63;;;;;;;;;;5325249;28;20189;-79
2022/06/11 16:36:05;;;;;;;10.95;3.03;;;;;;;;;;5318585;28;20033;-79
2022/06/11 16:38:45;;;;;;;10.27;2.47;;;;;;;;;;5275349;28;20025;-79
2022/06/11 16:42:46;;;;;;;10.18;2.97;;;;;;;;;;5282903;28;20139;-79
2022/06/11 16:44:34;;;;;;;11.10;3.15;;;;;;;;;;5282197;28;20095;-79
2022/06/11 16:47:08;;;;;;;10.25;3.30;;;;;;;;;;5297976;28;20024;-80
2022/06/11 16:58:31;;;;;;;12.90;3.35;;;;;;;;;;5305708;28;20439;-79
2022/06/11 17:01:16;;;;;;;14.05;3.28;;;;;;;;;;5303221;28;20048;-79
2022/06/11 17:03:55;;;;;;;11.30;2.50;;;;;;;;;;5303602;28;20029;-79
2022/06/11 17:06:34;;;;;;;12.55;2.95;;;;;;;;;;5303434;28;20706;-79
2022/06/11 17:09:24;;;;;;;12.07;3.28;;;;;;;;;;5301922;28;20163;-79
2022/06/11 17:12:12;;;;;;;9.82;2.65;;;;;;;;;;5276962;28;20116;-80
2022/06/11 17:14:56;;;;;;;14.25;3.03;;;;;;;;;;5303236;28;20020;-79
2022/06/11 17:17:35;;;;;;;13.18;3.20;;;;;;;;;;5303180;28;20119;-79
2022/06/11 17:20:07;;;;;;;11.73;3.03;;;;;;;;;;5302839;28;20436;-79
2022/06/11 17:22:38;;;;;;;13.60;2.95;;;;;;;;;;5302904;28;20111;-79
2022/06/11 17:25:10;;;;;;;11.17;3.10;;;;;;;;;;5314987;28;20020;-79
2022/06/11 17:27:51;;;;;;;10.93;3.25;;;;;;;;;;5324815;28;20266;-80
2022/06/11 17:30:24;;;;;;;10.82;2.35;;;;;;;;;;5338953;27;20192;-80
2022/06/11 17:32:55;;;;;;;10.18;2.83;;;;;;;;;;5324576;28;20059;-80
2022/06/11 17:35:26;;;;;;;9.20;2.97;;;;;;;;;;5284462;28;20063;-80
2022/06/11 17:37:57;;;;;;;7.93;2.43;;;;;;;;;;5301934;28;20025;-80
2022/06/11 17:40:32;;;;;;;10.63;3.00;;;;;;;;;;5302495;28;20617;-80
2022/06/11 17:43:04;;;;;;;13.13;3.53;;;;;;;;;;5303132;28;20029;-79
2022/06/11 17:45:35;;;;;;;14.02;3.60;;;;;;;;;;5302415;28;20360;-80
2022/06/11 17:48:07;;;;;;;10.02;3.15;;;;;;;;;;5303027;28;20039;-78
2022/06/11 17:50:40;;;;;;;15.27;3.90;;;;;;;;;;5302987;28;20121;-79
2022/06/11 17:53:13;;;;;;;11.20;2.78;;;;;;;;;;5303393;28;20349;-79
2022/06/11 17:55:45;;;;;;;11.05;2.95;;;;;;;;;;5301452;28;20028;-79
2022/06/11 17:58:17;;;;;;;11.48;2.80;;;;;;;;;;5293612;28;20400;-79
2022/06/11 18:00:48;;;;;;;16.08;3.97;;;;;;;;;;5323892;28;20023;-79
2022/06/11 18:03:23;;;;;;;14.20;3.80;;;;;;;;;;5292042;28;20374;-79
2022/06/11 18:05:55;;;;;;;14.23;3.13;;;;;;;;;;5285318;28;20033;-79
2022/06/11 18:08:26;;;;;;;12.85;3.70;;;;;;;;;;5285408;28;20029;-79
2022/06/11 18:10:57;;;;;;;12.43;3.30;;;;;;;;;;5298004;28;20090;-80
2022/06/11 18:13:28;;;;;;;12.37;3.30;;;;;;;;;;5304884;28;20316;-80
2022/06/11 18:16:01;;;;;;;19.13;4.10;;;;;;;;;;5305289;28;20453;-80
2022/06/11 18:18:37;;;;;;;18.67;3.83;;;;;;;;;;5288283;28;20538;-80
2022/06/11 18:26:51;;;;;;;16.92;4.20;;;;;;;;;;5307929;28;20033;-79
2022/06/11 18:29:23;;;;;;;17.27;4.18;;;;;;;;;;5284243;28;20115;-80
2022/06/11 18:31:54;;;;;;;15.63;4.22;;;;;;;;;;5289933;28;20312;-79
2022/06/11 18:34:26;;;;;;;20.73;4.30;;;;;;;;;;5308483;27;20028;-80
2022/06/11 18:36:58;;;;;;;18.90;4.15;;;;;;;;;;5311528;28;20099;-79
2022/06/11 18:39:29;;;;;;;20.58;4.20;;;;;;;;;;5336367;28;20460;-78
2022/06/11 18:42:00;;;;;;;16.45;3.65;;;;;;;;;;5318720;28;20067;-79
2022/06/11 18:44:32;;;;;;;17.98;4.20;;;;;;;;;;5317873;28;20062;-80
2022/06/11 18:47:03;;;;;;;16.67;4.18;;;;;;;;;;5327831;28;20020;-80
2022/06/11 18:49:35;;;;;;;15.18;3.90;;;;;;;;;;5309107;28;20119;-80
2022/06/11 18:52:06;;;;;;;17.17;3.80;;;;;;;;;;5326696;28;20022;-80
2022/06/11 18:54:37;;;;;;;12.52;3.40;;;;;;;;;;5327567;28;20063;-80
2022/06/11 18:57:08;;;;;;;14.00;3.53;;;;;;;;;;5325776;28;20016;-79
2022/06/11 18:59:40;;;;;;;13.37;3.00;;;;;;;;;;5326512;28;20325;-80
2022/06/11 19:02:12;;;;;;;12.67;3.33;;;;;;;;;;5325474;28;20032;-80
2022/06/11 19:04:43;;;;;;;10.95;2.92;;;;;;;;;;5326762;28;20345;-80
2022/06/11 19:07:14;;;;;;;10.63;2.97;;;;;;;;;;5326886;28;20043;-80
2022/06/11 19:09:45;;;;;;;11.90;2.80;;;;;;;;;;5324373;27;20546;-80
2022/06/11 19:12:16;;;;;;;12.27;3.13;;;;;;;;;;5326463;28;20075;-80
2022/06/11 19:14:47;;;;;;;9.63;2.50;;;;;;;;;;5306310;28;20028;-80
2022/06/11 19:17:19;;;;;;;14.27;2.87;;;;;;;;;;5326937;28;20022;-80
2022/06/11 19:19:50;;;;;;;9.17;2.50;;;;;;;;;;5327029;28;20608;-79
2022/06/11 19:22:21;;;;;;;11.88;2.63;;;;;;;;;;5326319;28;20274;-80
2022/06/11 19:24:52;;;;;;;11.10;2.70;;;;;;;;;;5315757;28;20048;-80
2022/06/11 19:27:24;;;;;;;9.38;2.88;;;;;;;;;;5326951;28;20460;-80
2022/06/11 19:29:55;;;;;;;13.70;2.70;;;;;;;;;;5326507;28;20024;-80
2022/06/11 19:32:26;;;;;;;13.73;2.90;;;;;;;;;;5320905;27;20041;-80
2022/06/11 19:34:57;;;;;;;8.70;2.40;;;;;;;;;;5298603;28;20123;-79
2022/06/11 19:37:29;;;;;;;11.33;3.00;;;;;;;;;;5326529;28;20016;-80
2022/06/11 19:40:03;;;;;;;10.98;2.28;;;;;;;;;;5306577;28;20333;-80
2022/06/11 19:42:34;;;;;;;12.77;2.60;;;;;;;;;;5305434;28;20585;-79
2022/06/11 19:45:05;;;;;;;8.27;2.17;;;;;;;;;;5304798;28;20238;-80
2022/06/11 19:47:37;;;;;;;15.95;3.15;;;;;;;;;;5321289;27;20777;-80
2022/06/11 19:50:09;;;;;;;18.73;3.15;;;;;;;;;;5307781;27;20024;-79
2022/06/11 19:52:41;;;;;;;12.65;2.67;;;;;;;;;;5307629;28;20030;-79
2022/06/11 19:55:14;;;;;;;11.00;2.75;;;;;;;;;;5320086;28;20029;-79
2022/06/11 19:57:47;;;;;;;15.73;3.10;;;;;;;;;;5304576;28;20025;-79
2022/06/11 20:00:19;;;;;;;10.45;2.55;;;;;;;;;;5324695;28;20031;-79
2022/06/11 20:02:50;;;;;;;12.68;2.90;;;;;;;;;;5325984;28;20483;-79
2022/06/11 20:05:23;;;;;;;7.53;2.72;;;;;;;;;;5325393;28;20027;-80
2022/06/11 20:07:55;;;;;;;14.45;2.92;;;;;;;;;;5326152;28;20043;-79
2022/06/11 20:10:27;;;;;;;13.45;3.03;;;;;;;;;;5321611;28;20368;-79